Airfield :
LOGIN :

Register | Disclaimer

   EN    FR    IT 

 










Legend :    VFR   Marginal VFR   IFR   Intensive IFR   Very Intensive IFR
Visi :
Ceiling :
>= 8 km
>= 3000ft
5 to 8 km
1000 to 3000 ft
1500m to 5 km
500 to 1000 ft
800 to 1500m
200 to 500 ft
< 800m
< 200 ft
Symbols :   Thunderstorms  Fog  Heavy snow  Heavy precipitations  Wind > 20 kt
SIGMETs :     Misc.  Thunderstorms  Icing  Turbulence  Mountain Waves  Volcanic Ashes






- Airport Elevation : 82 ft
- IATA code : ALG


DAAG - Alger Houari Boumedienne

CURRENT METAR :
  • 280630Z VRB02KT 9999 FEW020 SCT053 09/08 Q1022

EXPIRED METARs :
  • 280600Z 26004KT 220V280 9999 FEW020 SCT043 09/08 Q1021
  • 280530Z 26003KT 230V310 CAVOK 10/09 Q1021
  • 280500Z 26003KT CAVOK 10/09 Q1021
  • 280430Z 00000KT CAVOK 09/08 Q1021
  • 280400Z VRB01KT 9999 FEW020 SCT050 09/08 Q1020

TAF TAF DAAG
Valid from the 28 at 06:00 until the 29 at 06:00 UTC


280500Z 2806/2906 VRB02KT 9999 FEW023
PROB40
TEMPO 2806/2815 FEW020TCU FEW023CB
BECMG 2810/2813 35010KT
BECMG 2817/2820 VRB02KT



MET'MAP, your aeronautical weather chart ! - Copyright ORBIFLY December 2007 - Disclaimer

ORBIFLY MET'MAP TEAM :

Programming & Development : Alexandra Zaïnal
Concept & original design : Baudouin d'Aumeries
Assistance for programming : Marc-Olivier Méhu
Technical & hardware support : Manuel Goepfert

Contact : metmap@orbifly.com




SOURCES & CREDITS :

   NOAA